sensor_id;sensor_type;location;lat;lon;timestamp;temperature;humidity
51922;DHT22;37948;53.260;6.394;2022-08-21T00:01:53;17.00;99.90
51922;DHT22;37948;53.260;6.394;2022-08-21T00:04:19;17.00;99.90
51922;DHT22;37948;53.260;6.394;2022-08-21T00:06:44;17.00;99.90
51922;DHT22;37948;53.260;6.394;2022-08-21T00:09:10;17.00;99.90
51922;DHT22;37948;53.260;6.394;2022-08-21T00:11:36;17.00;99.90
51922;DHT22;37948;53.260;6.394;2022-08-21T00:14:03;17.00;99.90
51922;DHT22;37948;53.260;6.394;2022-08-21T00:16:29;17.00;99.90
51922;DHT22;37948;53.260;6.394;2022-08-21T00:18:54;17.00;99.90
51922;DHT22;37948;53.260;6.394;2022-08-21T00:21:20;16.90;99.90
51922;DHT22;37948;53.260;6.394;2022-08-21T00:23:45;17.00;99.90
51922;DHT22;37948;53.260;6.394;2022-08-21T00:26:11;17.00;99.90
51922;DHT22;37948;53.260;6.394;2022-08-21T00:28:36;16.90;99.90
51922;DHT22;37948;53.260;6.394;2022-08-21T00:31:02;16.90;99.90
51922;DHT22;37948;53.260;6.394;2022-08-21T00:33:29;16.90;99.90
51922;DHT22;37948;53.260;6.394;2022-08-21T00:35:54;16.90;99.90
51922;DHT22;37948;53.260;6.394;2022-08-21T00:38:20;16.80;99.90
51922;DHT22;37948;53.260;6.394;2022-08-21T00:40:48;16.80;99.90
51922;DHT22;37948;53.260;6.394;2022-08-21T00:43:17;16.90;99.90
51922;DHT22;37948;53.260;6.394;2022-08-21T00:45:43;16.90;99.90
51922;DHT22;37948;53.260;6.394;2022-08-21T00:48:09;16.90;99.90
51922;DHT22;37948;53.260;6.394;2022-08-21T00:50:37;16.90;99.90
51922;DHT22;37948;53.260;6.394;2022-08-21T00:53:04;16.90;99.90
51922;DHT22;37948;53.260;6.394;2022-08-21T00:55:30;16.90;99.90
51922;DHT22;37948;53.260;6.394;2022-08-21T00:57:57;16.90;99.90
51922;DHT22;37948;53.260;6.394;2022-08-21T01:00:24;16.90;99.90
51922;DHT22;37948;53.260;6.394;2022-08-21T01:02:53;16.90;99.90
51922;DHT22;37948;53.260;6.394;2022-08-21T01:05:18;17.00;99.90
51922;DHT22;37948;53.260;6.394;2022-08-21T01:07:44;16.90;99.90
51922;DHT22;37948;53.260;6.394;2022-08-21T01:10:10;17.00;99.90
51922;DHT22;37948;53.260;6.394;2022-08-21T01:12:36;16.90;99.90
51922;DHT22;37948;53.260;6.394;2022-08-21T01:15:03;16.90;99.90
51922;DHT22;37948;53.260;6.394;2022-08-21T01:17:29;16.90;99.90
51922;DHT22;37948;53.260;6.394;2022-08-21T01:19:59;16.90;99.90
51922;DHT22;37948;53.260;6.394;2022-08-21T01:22:25;16.90;99.90
51922;DHT22;37948;53.260;6.394;2022-08-21T01:24:51;16.90;99.90
51922;DHT22;37948;53.260;6.394;2022-08-21T01:27:17;16.90;99.90
51922;DHT22;37948;53.260;6.394;2022-08-21T01:29:45;16.90;99.90
51922;DHT22;37948;53.260;6.394;2022-08-21T01:32:13;16.90;99.90
51922;DHT22;37948;53.260;6.394;2022-08-21T01:34:40;16.80;99.90
51922;DHT22;37948;53.260;6.394;2022-08-21T01:37:06;16.80;99.90
51922;DHT22;37948;53.260;6.394;2022-08-21T01:39:32;16.80;99.90
51922;DHT22;37948;53.260;6.394;2022-08-21T01:41:57;16.80;99.90
51922;DHT22;37948;53.260;6.394;2022-08-21T01:44:23;16.80;99.90
51922;DHT22;37948;53.260;6.394;2022-08-21T01:46:50;16.80;99.90
51922;DHT22;37948;53.260;6.394;2022-08-21T01:49:16;16.80;99.90
51922;DHT22;37948;53.260;6.394;2022-08-21T01:51:41;16.70;99.90
51922;DHT22;37948;53.260;6.394;2022-08-21T01:54:07;16.70;99.90
51922;DHT22;37948;53.260;6.394;2022-08-21T01:56:37;16.70;99.90
51922;DHT22;37948;53.260;6.394;2022-08-21T01:59:03;16.60;99.90
51922;DHT22;37948;53.260;6.394;2022-08-21T02:01:29;16.60;99.90
51922;DHT22;37948;53.260;6.394;2022-08-21T02:03:54;16.60;99.90
51922;DHT22;37948;53.260;6.394;2022-08-21T02:06:20;16.60;99.90
51922;DHT22;37948;53.260;6.394;2022-08-21T02:08:45;16.60;99.90
51922;DHT22;37948;53.260;6.394;2022-08-21T02:11:11;16.60;99.90
51922;DHT22;37948;53.260;6.394;2022-08-21T02:13:37;16.60;99.90
51922;DHT22;37948;53.260;6.394;2022-08-21T02:16:02;16.60;99.90
51922;DHT22;37948;53.260;6.394;2022-08-21T02:18:28;16.50;99.90
51922;DHT22;37948;53.260;6.394;2022-08-21T02:20:54;16.50;99.90
51922;DHT22;37948;53.260;6.394;2022-08-21T02:23:20;16.50;99.90
51922;DHT22;37948;53.260;6.394;2022-08-21T02:25:46;16.50;99.90
51922;DHT22;37948;53.260;6.394;2022-08-21T02:28:12;16.50;99.90
51922;DHT22;37948;53.260;6.394;2022-08-21T02:30:40;16.50;99.90
51922;DHT22;37948;53.260;6.394;2022-08-21T02:33:05;16.50;99.90
51922;DHT22;37948;53.260;6.394;2022-08-21T02:35:31;16.50;99.90
51922;DHT22;37948;53.260;6.394;2022-08-21T02:37:58;16.50;99.90
51922;DHT22;37948;53.260;6.394;2022-08-21T02:40:26;16.50;99.90
51922;DHT22;37948;53.260;6.394;2022-08-21T02:42:52;16.50;99.90
51922;DHT22;37948;53.260;6.394;2022-08-21T02:45:18;16.50;99.90
51922;DHT22;37948;53.260;6.394;2022-08-21T02:47:48;16.40;99.90
51922;DHT22;37948;53.260;6.394;2022-08-21T02:50:16;16.50;99.90
51922;DHT22;37948;53.260;6.394;2022-08-21T02:52:42;16.40;99.90
51922;DHT22;37948;53.260;6.394;2022-08-21T02:55:07;16.40;99.90
51922;DHT22;37948;53.260;6.394;2022-08-21T02:57:32;16.40;99.90
51922;DHT22;37948;53.260;6.394;2022-08-21T02:59:58;16.40;99.90
51922;DHT22;37948;53.260;6.394;2022-08-21T03:02:23;16.40;99.90
51922;DHT22;37948;53.260;6.394;2022-08-21T03:04:49;16.40;99.90
51922;DHT22;37948;53.260;6.394;2022-08-21T03:07:15;16.40;99.90
51922;DHT22;37948;53.260;6.394;2022-08-21T03:09:40;16.40;99.90
51922;DHT22;37948;53.260;6.394;2022-08-21T03:12:06;16.40;99.90
51922;DHT22;37948;53.260;6.394;2022-08-21T03:14:31;16.40;99.90
51922;DHT22;37948;53.260;6.394;2022-08-21T03:16:57;16.30;99.90
51922;DHT22;37948;53.260;6.394;2022-08-21T03:19:23;16.30;99.90
51922;DHT22;37948;53.260;6.394;2022-08-21T03:21:48;16.30;99.90
51922;DHT22;37948;53.260;6.394;2022-08-21T03:24:14;16.30;99.90
51922;DHT22;37948;53.260;6.394;2022-08-21T03:26:39;16.20;99.90
51922;DHT22;37948;53.260;6.394;2022-08-21T03:29:05;16.20;99.90
51922;DHT22;37948;53.260;6.394;2022-08-21T03:31:32;16.20;99.90
51922;DHT22;37948;53.260;6.394;2022-08-21T03:33:58;16.20;99.90
51922;DHT22;37948;53.260;6.394;2022-08-21T03:36:23;16.20;99.90
51922;DHT22;37948;53.260;6.394;2022-08-21T03:38:49;16.20;99.90
51922;DHT22;37948;53.260;6.394;2022-08-21T03:41:15;16.20;99.90
51922;DHT22;37948;53.260;6.394;2022-08-21T03:43:41;16.20;99.90
51922;DHT22;37948;53.260;6.394;2022-08-21T03:46:06;16.10;99.90
51922;DHT22;37948;53.260;6.394;2022-08-21T03:48:32;16.10;99.90
51922;DHT22;37948;53.260;6.394;2022-08-21T03:50:58;16.20;99.90
51922;DHT22;37948;53.260;6.394;2022-08-21T03:53:23;16.20;99.90
51922;DHT22;37948;53.260;6.394;2022-08-21T03:55:50;16.10;99.90
51922;DHT22;37948;53.260;6.394;2022-08-21T03:58:22;16.10;99.90
51922;DHT22;37948;53.260;6.394;2022-08-21T04:00:49;16.10;99.90
51922;DHT22;37948;53.260;6.394;2022-08-21T04:03:15;16.10;99.90
51922;DHT22;37948;53.260;6.394;2022-08-21T04:05:40;16.10;99.90
51922;DHT22;37948;53.260;6.394;2022-08-21T04:08:06;16.10;99.90
51922;DHT22;37948;53.260;6.394;2022-08-21T04:10:33;16.10;99.90
51922;DHT22;37948;53.260;6.394;2022-08-21T04:12:59;16.10;99.90
51922;DHT22;37948;53.260;6.394;2022-08-21T04:15:25;16.10;99.90
51922;DHT22;37948;53.260;6.394;2022-08-21T04:17:51;16.10;99.90
51922;DHT22;37948;53.260;6.394;2022-08-21T04:20:17;16.10;99.90
51922;DHT22;37948;53.260;6.394;2022-08-21T04:22:43;16.10;99.90
51922;DHT22;37948;53.260;6.394;2022-08-21T04:25:10;16.20;99.90
51922;DHT22;37948;53.260;6.394;2022-08-21T04:27:35;16.10;99.90
51922;DHT22;37948;53.260;6.394;2022-08-21T04:30:01;16.10;99.90
51922;DHT22;37948;53.260;6.394;2022-08-21T04:32:26;16.20;99.90
51922;DHT22;37948;53.260;6.394;2022-08-21T04:35:00;16.10;99.90
51922;DHT22;37948;53.260;6.394;2022-08-21T04:37:26;16.10;99.90
51922;DHT22;37948;53.260;6.394;2022-08-21T04:39:51;16.10;99.90
51922;DHT22;37948;53.260;6.394;2022-08-21T04:42:17;16.10;99.90
51922;DHT22;37948;53.260;6.394;2022-08-21T04:44:43;16.10;99.90
51922;DHT22;37948;53.260;6.394;2022-08-21T04:47:08;16.10;99.90
51922;DHT22;37948;53.260;6.394;2022-08-21T04:49:34;16.10;99.90
51922;DHT22;37948;53.260;6.394;2022-08-21T04:52:00;16.10;99.90
51922;DHT22;37948;53.260;6.394;2022-08-21T04:54:26;16.20;99.90
51922;DHT22;37948;53.260;6.394;2022-08-21T04:56:52;16.10;99.90
51922;DHT22;37948;53.260;6.394;2022-08-21T04:59:21;16.10;99.90
51922;DHT22;37948;53.260;6.394;2022-08-21T05:01:47;16.10;99.90
51922;DHT22;37948;53.260;6.394;2022-08-21T05:04:14;16.10;99.90
51922;DHT22;37948;53.260;6.394;2022-08-21T05:06:42;16.10;99.90
51922;DHT22;37948;53.260;6.394;2022-08-21T05:09:09;16.10;99.90
51922;DHT22;37948;53.260;6.394;2022-08-21T05:11:34;16.10;99.90
51922;DHT22;37948;53.260;6.394;2022-08-21T05:14:00;16.10;99.90
51922;DHT22;37948;53.260;6.394;2022-08-21T05:16:26;16.20;99.90
51922;DHT22;37948;53.260;6.394;2022-08-21T05:18:51;16.20;99.90
51922;DHT22;37948;53.260;6.394;2022-08-21T05:21:17;16.20;99.90
51922;DHT22;37948;53.260;6.394;2022-08-21T05:23:42;16.20;99.90
51922;DHT22;37948;53.260;6.394;2022-08-21T05:26:08;16.20;99.90
51922;DHT22;37948;53.260;6.394;2022-08-21T05:28:33;16.20;99.90
51922;DHT22;37948;53.260;6.394;2022-08-21T05:30:59;16.30;99.90
51922;DHT22;37948;53.260;6.394;2022-08-21T05:33:24;16.30;99.90
51922;DHT22;37948;53.260;6.394;2022-08-21T05:35:51;16.30;99.90
51922;DHT22;37948;53.260;6.394;2022-08-21T05:38:17;16.40;99.90
51922;DHT22;37948;53.260;6.394;2022-08-21T05:40:42;16.30;99.90
51922;DHT22;37948;53.260;6.394;2022-08-21T05:43:09;16.40;99.90
51922;DHT22;37948;53.260;6.394;2022-08-21T05:45:34;16.40;99.90
51922;DHT22;37948;53.260;6.394;2022-08-21T05:48:13;16.50;99.90
51922;DHT22;37948;53.260;6.394;2022-08-21T05:50:40;16.40;99.90
51922;DHT22;37948;53.260;6.394;2022-08-21T05:53:06;16.50;99.90
51922;DHT22;37948;53.260;6.394;2022-08-21T05:55:31;16.50;99.90
51922;DHT22;37948;53.260;6.394;2022-08-21T05:57:57;16.50;99.90
51922;DHT22;37948;53.260;6.394;2022-08-21T06:00:22;16.60;99.90
51922;DHT22;37948;53.260;6.394;2022-08-21T06:02:48;16.60;99.90
51922;DHT22;37948;53.260;6.394;2022-08-21T06:05:16;16.60;99.90
51922;DHT22;37948;53.260;6.394;2022-08-21T06:07:41;16.60;99.90
51922;DHT22;37948;53.260;6.394;2022-08-21T06:10:07;16.70;99.90
51922;DHT22;37948;53.260;6.394;2022-08-21T06:12:32;16.70;99.90
51922;DHT22;37948;53.260;6.394;2022-08-21T06:14:58;16.70;99.90
51922;DHT22;37948;53.260;6.394;2022-08-21T06:17:23;16.70;99.90
51922;DHT22;37948;53.260;6.394;2022-08-21T06:19:52;16.80;99.90
51922;DHT22;37948;53.260;6.394;2022-08-21T06:22:18;16.80;99.90
51922;DHT22;37948;53.260;6.394;2022-08-21T06:24:44;16.80;99.90
51922;DHT22;37948;53.260;6.394;2022-08-21T06:27:09;16.90;99.90
51922;DHT22;37948;53.260;6.394;2022-08-21T06:29:35;16.90;99.90
51922;DHT22;37948;53.260;6.394;2022-08-21T06:32:01;16.90;99.90
51922;DHT22;37948;53.260;6.394;2022-08-21T06:34:27;17.00;99.90
51922;DHT22;37948;53.260;6.394;2022-08-21T06:36:52;17.10;99.90
51922;DHT22;37948;53.260;6.394;2022-08-21T06:39:18;17.10;99.90
51922;DHT22;37948;53.260;6.394;2022-08-21T06:41:43;17.10;99.90
51922;DHT22;37948;53.260;6.394;2022-08-21T06:44:09;17.20;99.90
51922;DHT22;37948;53.260;6.394;2022-08-21T06:46:34;17.20;99.90
51922;DHT22;37948;53.260;6.394;2022-08-21T06:49:00;17.20;99.90
51922;DHT22;37948;53.260;6.394;2022-08-21T06:51:26;17.30;99.90
51922;DHT22;37948;53.260;6.394;2022-08-21T06:53:52;17.30;99.90
51922;DHT22;37948;53.260;6.394;2022-08-21T06:56:18;17.40;99.90
51922;DHT22;37948;53.260;6.394;2022-08-21T06:58:44;17.50;99.90
51922;DHT22;37948;53.260;6.394;2022-08-21T07:01:09;17.50;99.90
51922;DHT22;37948;53.260;6.394;2022-08-21T07:03:36;17.60;99.90
51922;DHT22;37948;53.260;6.394;2022-08-21T07:06:02;17.70;99.90
51922;DHT22;37948;53.260;6.394;2022-08-21T07:08:28;17.80;99.90
51922;DHT22;37948;53.260;6.394;2022-08-21T07:10:54;17.80;99.90
51922;DHT22;37948;53.260;6.394;2022-08-21T07:13:20;17.90;99.90
51922;DHT22;37948;53.260;6.394;2022-08-21T07:15:46;17.90;99.90
51922;DHT22;37948;53.260;6.394;2022-08-21T07:18:12;17.90;99.90
51922;DHT22;37948;53.260;6.394;2022-08-21T07:20:38;18.00;99.90
51922;DHT22;37948;53.260;6.394;2022-08-21T07:23:04;18.00;99.90
51922;DHT22;37948;53.260;6.394;2022-08-21T07:25:30;18.10;99.90
51922;DHT22;37948;53.260;6.394;2022-08-21T07:27:56;18.20;99.90
51922;DHT22;37948;53.260;6.394;2022-08-21T07:30:22;18.20;99.90
51922;DHT22;37948;53.260;6.394;2022-08-21T07:32:47;18.30;99.90
51922;DHT22;37948;53.260;6.394;2022-08-21T07:35:14;18.40;99.90
51922;DHT22;37948;53.260;6.394;2022-08-21T07:37:40;18.50;99.90
51922;DHT22;37948;53.260;6.394;2022-08-21T07:40:05;18.50;99.90
51922;DHT22;37948;53.260;6.394;2022-08-21T07:42:31;18.60;99.90
51922;DHT22;37948;53.260;6.394;2022-08-21T07:44:56;18.70;99.90
51922;DHT22;37948;53.260;6.394;2022-08-21T07:47:22;18.70;99.90
51922;DHT22;37948;53.260;6.394;2022-08-21T07:49:47;18.70;99.90
51922;DHT22;37948;53.260;6.394;2022-08-21T07:52:13;18.70;99.90
51922;DHT22;37948;53.260;6.394;2022-08-21T07:54:38;18.80;99.90
51922;DHT22;37948;53.260;6.394;2022-08-21T07:57:04;18.90;99.90
51922;DHT22;37948;53.260;6.394;2022-08-21T07:59:30;19.00;99.90
51922;DHT22;37948;53.260;6.394;2022-08-21T08:01:55;19.00;99.90
51922;DHT22;37948;53.260;6.394;2022-08-21T08:04:21;19.10;99.90
51922;DHT22;37948;53.260;6.394;2022-08-21T08:06:47;19.20;99.90
51922;DHT22;37948;53.260;6.394;2022-08-21T08:09:12;19.20;99.90
51922;DHT22;37948;53.260;6.394;2022-08-21T08:11:38;19.30;99.90
51922;DHT22;37948;53.260;6.394;2022-08-21T08:14:06;19.40;99.90
51922;DHT22;37948;53.260;6.394;2022-08-21T08:16:31;19.40;99.90
51922;DHT22;37948;53.260;6.394;2022-08-21T08:18:57;19.50;99.90
51922;DHT22;37948;53.260;6.394;2022-08-21T08:21:23;19.60;99.90
51922;DHT22;37948;53.260;6.394;2022-08-21T08:23:48;19.70;99.90
51922;DHT22;37948;53.260;6.394;2022-08-21T08:26:14;19.70;99.90
51922;DHT22;37948;53.260;6.394;2022-08-21T08:28:40;19.80;99.90
51922;DHT22;37948;53.260;6.394;2022-08-21T08:31:06;19.80;99.90
51922;DHT22;37948;53.260;6.394;2022-08-21T08:33:31;19.90;99.90
51922;DHT22;37948;53.260;6.394;2022-08-21T08:35:57;19.90;99.90
51922;DHT22;37948;53.260;6.394;2022-08-21T08:38:23;20.00;99.90
51922;DHT22;37948;53.260;6.394;2022-08-21T08:41:23;20.00;99.90
51922;DHT22;37948;53.260;6.394;2022-08-21T08:43:42;20.10;99.90
51922;DHT22;37948;53.260;6.394;2022-08-21T08:46:14;20.20;99.90
51922;DHT22;37948;53.260;6.394;2022-08-21T08:48:54;20.30;99.90
51922;DHT22;37948;53.260;6.394;2022-08-21T08:51:26;20.30;99.90
51922;DHT22;37948;53.260;6.394;2022-08-21T08:54:03;20.40;99.90
51922;DHT22;37948;53.260;6.394;2022-08-21T08:56:31;20.50;99.90
51922;DHT22;37948;53.260;6.394;2022-08-21T08:59:02;20.50;99.90
51922;DHT22;37948;53.260;6.394;2022-08-21T09:01:32;20.50;99.90
51922;DHT22;37948;53.260;6.394;2022-08-21T09:03:57;20.40;99.90
51922;DHT22;37948;53.260;6.394;2022-08-21T09:14:09;20.50;99.90
51922;DHT22;37948;53.260;6.394;2022-08-21T09:19:46;20.70;99.90
51922;DHT22;37948;53.260;6.394;2022-08-21T09:22:19;20.60;99.90
51922;DHT22;37948;53.260;6.394;2022-08-21T09:27:15;20.80;99.90
51922;DHT22;37948;53.260;6.394;2022-08-21T09:29:42;20.90;99.90
51922;DHT22;37948;53.260;6.394;2022-08-21T09:32:14;21.00;99.90
51922;DHT22;37948;53.260;6.394;2022-08-21T09:34:40;21.00;99.90
51922;DHT22;37948;53.260;6.394;2022-08-21T09:37:14;21.10;99.90
51922;DHT22;37948;53.260;6.394;2022-08-21T09:39:40;21.20;99.90
51922;DHT22;37948;53.260;6.394;2022-08-21T09:42:07;21.30;99.90
51922;DHT22;37948;53.260;6.394;2022-08-21T09:44:34;21.50;99.90
51922;DHT22;37948;53.260;6.394;2022-08-21T09:47:04;21.60;99.90
51922;DHT22;37948;53.260;6.394;2022-08-21T09:49:30;21.60;99.90
51922;DHT22;37948;53.260;6.394;2022-08-21T09:51:56;21.70;99.90
51922;DHT22;37948;53.260;6.394;2022-08-21T09:54:26;21.80;99.90
51922;DHT22;37948;53.260;6.394;2022-08-21T09:56:56;21.80;99.90
51922;DHT22;37948;53.260;6.394;2022-08-21T09:59:41;21.80;99.90
51922;DHT22;37948;53.260;6.394;2022-08-21T10:02:21;21.80;99.90
51922;DHT22;37948;53.260;6.394;2022-08-21T10:04:51;21.80;99.90
51922;DHT22;37948;53.260;6.394;2022-08-21T10:07:19;21.70;99.90
51922;DHT22;37948;53.260;6.394;2022-08-21T10:09:45;21.70;99.90
51922;DHT22;37948;53.260;6.394;2022-08-21T10:12:19;21.70;99.90
51922;DHT22;37948;53.260;6.394;2022-08-21T10:15:01;21.70;99.90
51922;DHT22;37948;53.260;6.394;2022-08-21T10:17:29;21.70;99.90
51922;DHT22;37948;53.260;6.394;2022-08-21T10:20:03;21.70;99.90
51922;DHT22;37948;53.260;6.394;2022-08-21T10:22:47;21.70;99.90
51922;DHT22;37948;53.260;6.394;2022-08-21T10:25:26;21.70;99.90
51922;DHT22;37948;53.260;6.394;2022-08-21T10:28:00;21.90;99.90
51922;DHT22;37948;53.260;6.394;2022-08-21T10:36:04;22.40;99.90
51922;DHT22;37948;53.260;6.394;2022-08-21T10:41:26;22.70;99.90
51922;DHT22;37948;53.260;6.394;2022-08-21T10:52:20;22.20;99.90
51922;DHT22;37948;53.260;6.394;2022-08-21T10:54:59;22.30;99.90
51922;DHT22;37948;53.260;6.394;2022-08-21T10:59:59;22.80;99.90
51922;DHT22;37948;53.260;6.394;2022-08-21T11:02:29;23.00;99.90
51922;DHT22;37948;53.260;6.394;2022-08-21T11:05:08;23.10;99.90
51922;DHT22;37948;53.260;6.394;2022-08-21T11:07:37;22.90;99.90
51922;DHT22;37948;53.260;6.394;2022-08-21T11:10:08;22.90;99.90
51922;DHT22;37948;53.260;6.394;2022-08-21T11:12:40;22.90;99.90
51922;DHT22;37948;53.260;6.394;2022-08-21T11:17:37;23.10;99.90
51922;DHT22;37948;53.260;6.394;2022-08-21T11:20:08;23.10;99.90
51922;DHT22;37948;53.260;6.394;2022-08-21T11:22:40;23.10;99.90
51922;DHT22;37948;53.260;6.394;2022-08-21T11:25:13;23.20;99.90
51922;DHT22;37948;53.260;6.394;2022-08-21T11:27:46;23.30;99.90
51922;DHT22;37948;53.260;6.394;2022-08-21T11:30:14;23.20;99.90
51922;DHT22;37948;53.260;6.394;2022-08-21T11:40:40;23.20;99.90
51922;DHT22;37948;53.260;6.394;2022-08-21T11:43:10;23.20;99.90
51922;DHT22;37948;53.260;6.394;2022-08-21T11:45:48;23.20;99.90
51922;DHT22;37948;53.260;6.394;2022-08-21T11:50:42;23.10;99.90
51922;DHT22;37948;53.260;6.394;2022-08-21T11:53:10;23.20;99.90
51922;DHT22;37948;53.260;6.394;2022-08-21T11:55:44;23.40;99.90
51922;DHT22;37948;53.260;6.394;2022-08-21T12:01:17;23.70;99.90
51922;DHT22;37948;53.260;6.394;2022-08-21T12:03:52;23.90;99.90
51922;DHT22;37948;53.260;6.394;2022-08-21T12:06:27;23.90;99.90
51922;DHT22;37948;53.260;6.394;2022-08-21T12:08:57;24.00;99.90
51922;DHT22;37948;53.260;6.394;2022-08-21T12:11:24;23.90;99.90
51922;DHT22;37948;53.260;6.394;2022-08-21T12:14:10;24.00;99.90
51922;DHT22;37948;53.260;6.394;2022-08-21T12:16:40;24.20;99.90
51922;DHT22;37948;53.260;6.394;2022-08-21T12:19:39;24.30;99.90
51922;DHT22;37948;53.260;6.394;2022-08-21T12:21:59;24.50;99.90
51922;DHT22;37948;53.260;6.394;2022-08-21T12:24:45;24.60;99.90
51922;DHT22;37948;53.260;6.394;2022-08-21T12:29:59;24.50;99.90
51922;DHT22;37948;53.260;6.394;2022-08-21T12:32:29;24.30;99.90
51922;DHT22;37948;53.260;6.394;2022-08-21T12:34:58;24.00;99.90
51922;DHT22;37948;53.260;6.394;2022-08-21T12:40:32;23.60;99.90
51922;DHT22;37948;53.260;6.394;2022-08-21T12:42:57;23.50;99.90
51922;DHT22;37948;53.260;6.394;2022-08-21T12:45:27;23.40;99.90
51922;DHT22;37948;53.260;6.394;2022-08-21T12:47:59;23.40;99.90
51922;DHT22;37948;53.260;6.394;2022-08-21T12:50:35;23.30;99.90
51922;DHT22;37948;53.260;6.394;2022-08-21T12:53:08;23.20;99.90
51922;DHT22;37948;53.260;6.394;2022-08-21T12:55:35;23.10;99.90
51922;DHT22;37948;53.260;6.394;2022-08-21T12:58:05;23.00;99.90
51922;DHT22;37948;53.260;6.394;2022-08-21T13:00:30;23.00;99.90
51922;DHT22;37948;53.260;6.394;2022-08-21T13:02:56;22.90;99.90
51922;DHT22;37948;53.260;6.394;2022-08-21T13:05:32;22.90;99.90
51922;DHT22;37948;53.260;6.394;2022-08-21T13:07:58;22.90;99.90
51922;DHT22;37948;53.260;6.394;2022-08-21T13:10:28;22.90;99.90
51922;DHT22;37948;53.260;6.394;2022-08-21T13:12:56;22.90;99.90
51922;DHT22;37948;53.260;6.394;2022-08-21T13:15:33;22.90;99.90
51922;DHT22;37948;53.260;6.394;2022-08-21T13:17:59;23.10;99.90
51922;DHT22;37948;53.260;6.394;2022-08-21T13:20:31;23.40;99.90
51922;DHT22;37948;53.260;6.394;2022-08-21T13:23:00;23.50;99.90
51922;DHT22;37948;53.260;6.394;2022-08-21T13:25:27;23.50;99.90
51922;DHT22;37948;53.260;6.394;2022-08-21T13:27:57;23.40;99.90
51922;DHT22;37948;53.260;6.394;2022-08-21T13:30:22;23.30;99.90
51922;DHT22;37948;53.260;6.394;2022-08-21T13:32:54;23.20;99.90
51922;DHT22;37948;53.260;6.394;2022-08-21T13:35:26;23.10;99.90
51922;DHT22;37948;53.260;6.394;2022-08-21T13:37:53;23.00;99.90
51922;DHT22;37948;53.260;6.394;2022-08-21T13:40:28;22.90;99.90
51922;DHT22;37948;53.260;6.394;2022-08-21T13:42:55;22.90;99.90
51922;DHT22;37948;53.260;6.394;2022-08-21T13:45:30;22.80;99.90
51922;DHT22;37948;53.260;6.394;2022-08-21T13:47:56;22.80;99.90
51922;DHT22;37948;53.260;6.394;2022-08-21T13:50:23;22.70;99.90
51922;DHT22;37948;53.260;6.394;2022-08-21T13:53:03;22.70;99.90
51922;DHT22;37948;53.260;6.394;2022-08-21T13:56:03;22.60;99.90
51922;DHT22;37948;53.260;6.394;2022-08-21T13:58:25;22.60;99.90
51922;DHT22;37948;53.260;6.394;2022-08-21T14:00:50;22.60;99.90
51922;DHT22;37948;53.260;6.394;2022-08-21T14:06:00;22.60;99.90
51922;DHT22;37948;53.260;6.394;2022-08-21T14:08:36;22.50;99.90
51922;DHT22;37948;53.260;6.394;2022-08-21T14:11:04;22.50;99.90
51922;DHT22;37948;53.260;6.394;2022-08-21T14:13:33;22.40;99.90
51922;DHT22;37948;53.260;6.394;2022-08-21T14:16:00;22.50;99.90
51922;DHT22;37948;53.260;6.394;2022-08-21T14:18:26;22.50;99.90
51922;DHT22;37948;53.260;6.394;2022-08-21T14:21:02;22.50;99.90
51922;DHT22;37948;53.260;6.394;2022-08-21T14:23:29;22.50;99.90
51922;DHT22;37948;53.260;6.394;2022-08-21T14:25:54;22.50;99.90
51922;DHT22;37948;53.260;6.394;2022-08-21T14:28:26;22.50;99.90
51922;DHT22;37948;53.260;6.394;2022-08-21T14:30:52;22.60;99.90
51922;DHT22;37948;53.260;6.394;2022-08-21T14:33:20;22.70;99.90
51922;DHT22;37948;53.260;6.394;2022-08-21T14:35:48;22.80;99.90
51922;DHT22;37948;53.260;6.394;2022-08-21T14:38:14;23.00;99.90
51922;DHT22;37948;53.260;6.394;2022-08-21T14:40:40;23.10;99.90
51922;DHT22;37948;53.260;6.394;2022-08-21T14:43:06;23.10;99.90
51922;DHT22;37948;53.260;6.394;2022-08-21T14:45:33;23.20;99.90
51922;DHT22;37948;53.260;6.394;2022-08-21T14:47:59;23.30;99.90
51922;DHT22;37948;53.260;6.394;2022-08-21T14:50:25;23.30;99.90
51922;DHT22;37948;53.260;6.394;2022-08-21T14:52:50;23.30;99.90
51922;DHT22;37948;53.260;6.394;2022-08-21T14:55:17;23.30;99.90
51922;DHT22;37948;53.260;6.394;2022-08-21T14:57:49;23.20;99.90
51922;DHT22;37948;53.260;6.394;2022-08-21T15:00:16;23.20;99.90
51922;DHT22;37948;53.260;6.394;2022-08-21T15:02:43;23.10;99.90
51922;DHT22;37948;53.260;6.394;2022-08-21T15:05:09;23.00;99.90
51922;DHT22;37948;53.260;6.394;2022-08-21T15:07:34;22.90;99.90
51922;DHT22;37948;53.260;6.394;2022-08-21T15:10:00;22.70;99.90
51922;DHT22;37948;53.260;6.394;2022-08-21T15:12:25;22.70;99.90
51922;DHT22;37948;53.260;6.394;2022-08-21T15:14:51;22.70;99.90
51922;DHT22;37948;53.260;6.394;2022-08-21T15:17:17;22.70;99.90
51922;DHT22;37948;53.260;6.394;2022-08-21T15:19:43;22.70;99.90
51922;DHT22;37948;53.260;6.394;2022-08-21T15:22:08;22.70;99.90
51922;DHT22;37948;53.260;6.394;2022-08-21T15:24:34;22.70;99.90
51922;DHT22;37948;53.260;6.394;2022-08-21T15:27:00;22.70;99.90
51922;DHT22;37948;53.260;6.394;2022-08-21T15:29:26;22.70;99.90
51922;DHT22;37948;53.260;6.394;2022-08-21T15:31:56;22.70;99.90
51922;DHT22;37948;53.260;6.394;2022-08-21T15:34:22;22.70;99.90
51922;DHT22;37948;53.260;6.394;2022-08-21T15:36:48;22.70;99.90
51922;DHT22;37948;53.260;6.394;2022-08-21T15:39:14;22.60;99.90
51922;DHT22;37948;53.260;6.394;2022-08-21T15:41:39;22.60;99.90
51922;DHT22;37948;53.260;6.394;2022-08-21T15:44:05;22.60;99.90
51922;DHT22;37948;53.260;6.394;2022-08-21T15:46:30;22.60;99.90
51922;DHT22;37948;53.260;6.394;2022-08-21T15:48:56;22.50;99.90
51922;DHT22;37948;53.260;6.394;2022-08-21T15:51:22;22.50;99.90
51922;DHT22;37948;53.260;6.394;2022-08-21T15:53:47;22.50;99.90
51922;DHT22;37948;53.260;6.394;2022-08-21T15:56:16;22.50;99.90
51922;DHT22;37948;53.260;6.394;2022-08-21T15:58:43;22.40;99.90
51922;DHT22;37948;53.260;6.394;2022-08-21T16:01:08;22.40;99.90
51922;DHT22;37948;53.260;6.394;2022-08-21T16:03:34;22.30;99.90
51922;DHT22;37948;53.260;6.394;2022-08-21T16:05:59;22.20;99.90
51922;DHT22;37948;53.260;6.394;2022-08-21T16:08:25;22.20;99.90
51922;DHT22;37948;53.260;6.394;2022-08-21T16:10:51;22.10;99.90
51922;DHT22;37948;53.260;6.394;2022-08-21T16:13:20;22.10;99.90
51922;DHT22;37948;53.260;6.394;2022-08-21T16:15:47;22.10;99.90
51922;DHT22;37948;53.260;6.394;2022-08-21T16:18:13;22.00;99.90
51922;DHT22;37948;53.260;6.394;2022-08-21T16:20:38;22.00;99.90
51922;DHT22;37948;53.260;6.394;2022-08-21T16:23:04;21.90;99.90
51922;DHT22;37948;53.260;6.394;2022-08-21T16:25:29;21.90;99.90
51922;DHT22;37948;53.260;6.394;2022-08-21T16:27:56;21.80;99.90
51922;DHT22;37948;53.260;6.394;2022-08-21T16:30:22;21.80;99.90